sensor_id;sensor_type;location;lat;lon;timestamp;P1;durP1;ratioP1;P2;durP2;ratioP2
76617;SDS011;65509;42.816;74.648;2023-04-01T00:00:10;26.52;;;10.38;;
76617;SDS011;65509;42.816;74.648;2023-04-01T00:02:38;32.75;;;10.88;;
76617;SDS011;65509;42.816;74.648;2023-04-01T00:05:03;30.20;;;11.93;;
76617;SDS011;65509;42.816;74.648;2023-04-01T00:07:30;38.63;;;14.45;;
76617;SDS011;65509;42.816;74.648;2023-04-01T00:09:56;42.10;;;17.23;;
76617;SDS011;65509;42.816;74.648;2023-04-01T00:12:22;37.33;;;17.90;;
76617;SDS011;65509;42.816;74.648;2023-04-01T00:14:47;40.78;;;16.85;;
76617;SDS011;65509;42.816;74.648;2023-04-01T00:17:13;39.63;;;16.35;;
76617;SDS011;65509;42.816;74.648;2023-04-01T00:19:38;38.17;;;15.13;;
76617;SDS011;65509;42.816;74.648;2023-04-01T00:22:04;30.38;;;13.02;;
76617;SDS011;65509;42.816;74.648;2023-04-01T00:24:29;35.05;;;13.40;;
76617;SDS011;65509;42.816;74.648;2023-04-01T00:26:56;33.47;;;12.70;;
76617;SDS011;65509;42.816;74.648;2023-04-01T00:29:21;28.98;;;11.82;;
76617;SDS011;65509;42.816;74.648;2023-04-01T00:31:49;37.38;;;13.07;;
76617;SDS011;65509;42.816;74.648;2023-04-01T00:34:14;29.85;;;11.90;;
76617;SDS011;65509;42.816;74.648;2023-04-01T00:36:40;38.10;;;12.10;;
76617;SDS011;65509;42.816;74.648;2023-04-01T00:39:05;29.85;;;11.70;;
76617;SDS011;65509;42.816;74.648;2023-04-01T00:41:31;27.25;;;10.68;;
76617;SDS011;65509;42.816;74.648;2023-04-01T00:46:40;32.83;;;10.65;;
76617;SDS011;65509;42.816;74.648;2023-04-01T00:49:05;28.80;;;9.70;;
76617;SDS011;65509;42.816;74.648;2023-04-01T00:51:31;26.35;;;9.98;;
76617;SDS011;65509;42.816;74.648;2023-04-01T00:53:58;29.30;;;10.43;;
76617;SDS011;65509;42.816;74.648;2023-04-01T00:56:32;21.17;;;9.40;;
76617;SDS011;65509;42.816;74.648;2023-04-01T00:59:00;31.35;;;11.05;;
76617;SDS011;65509;42.816;74.648;2023-04-01T01:01:26;34.63;;;15.13;;
76617;SDS011;65509;42.816;74.648;2023-04-01T01:03:53;31.65;;;14.00;;
76617;SDS011;65509;42.816;74.648;2023-04-01T01:14:42;32.53;;;12.25;;
76617;SDS011;65509;42.816;74.648;2023-04-01T01:17:19;24.15;;;10.63;;
76617;SDS011;65509;42.816;74.648;2023-04-01T01:20:03;26.38;;;9.65;;
76617;SDS011;65509;42.816;74.648;2023-04-01T01:27:24;24.13;;;9.80;;
76617;SDS011;65509;42.816;74.648;2023-04-01T01:30:11;41.42;;;12.95;;
76617;SDS011;65509;42.816;74.648;2023-04-01T01:38:02;33.20;;;12.48;;
76617;SDS011;65509;42.816;74.648;2023-04-01T01:40:28;27.33;;;11.15;;
76617;SDS011;65509;42.816;74.648;2023-04-01T01:42:57;39.03;;;13.68;;
76617;SDS011;65509;42.816;74.648;2023-04-01T01:45:24;33.20;;;14.85;;
76617;SDS011;65509;42.816;74.648;2023-04-01T01:47:51;44.97;;;14.85;;
76617;SDS011;65509;42.816;74.648;2023-04-01T01:50:17;42.13;;;15.10;;
76617;SDS011;65509;42.816;74.648;2023-04-01T01:52:43;38.35;;;13.85;;
76617;SDS011;65509;42.816;74.648;2023-04-01T01:55:28;42.28;;;16.60;;
76617;SDS011;65509;42.816;74.648;2023-04-01T01:57:55;44.72;;;15.75;;
76617;SDS011;65509;42.816;74.648;2023-04-01T02:00:20;43.67;;;14.85;;
76617;SDS011;65509;42.816;74.648;2023-04-01T02:02:46;40.15;;;16.17;;
76617;SDS011;65509;42.816;74.648;2023-04-01T02:05:17;47.50;;;17.05;;
76617;SDS011;65509;42.816;74.648;2023-04-01T02:07:44;45.90;;;17.20;;
76617;SDS011;65509;42.816;74.648;2023-04-01T02:10:12;41.95;;;16.30;;
76617;SDS011;65509;42.816;74.648;2023-04-01T02:12:37;39.00;;;14.95;;
76617;SDS011;65509;42.816;74.648;2023-04-01T02:15:08;38.17;;;15.00;;
76617;SDS011;65509;42.816;74.648;2023-04-01T02:17:35;49.53;;;16.30;;
76617;SDS011;65509;42.816;74.648;2023-04-01T02:20:04;42.80;;;16.25;;
76617;SDS011;65509;42.816;74.648;2023-04-01T02:22:31;46.15;;;15.23;;
76617;SDS011;65509;42.816;74.648;2023-04-01T02:25:00;44.53;;;15.80;;
76617;SDS011;65509;42.816;74.648;2023-04-01T02:27:27;53.05;;;15.70;;
76617;SDS011;65509;42.816;74.648;2023-04-01T02:29:53;46.42;;;17.15;;
76617;SDS011;65509;42.816;74.648;2023-04-01T02:32:19;47.28;;;16.65;;
76617;SDS011;65509;42.816;74.648;2023-04-01T02:34:45;47.88;;;17.80;;
76617;SDS011;65509;42.816;74.648;2023-04-01T02:37:11;45.97;;;17.35;;
76617;SDS011;65509;42.816;74.648;2023-04-01T02:39:37;48.33;;;18.17;;
76617;SDS011;65509;42.816;74.648;2023-04-01T02:42:03;45.00;;;16.35;;
76617;SDS011;65509;42.816;74.648;2023-04-01T02:44:28;56.53;;;18.00;;
76617;SDS011;65509;42.816;74.648;2023-04-01T02:46:54;56.03;;;18.58;;
76617;SDS011;65509;42.816;74.648;2023-04-01T02:49:19;43.33;;;16.88;;
76617;SDS011;65509;42.816;74.648;2023-04-01T02:51:45;50.13;;;18.20;;
76617;SDS011;65509;42.816;74.648;2023-04-01T02:54:10;41.83;;;18.30;;
76617;SDS011;65509;42.816;74.648;2023-04-01T02:56:36;49.20;;;17.02;;
76617;SDS011;65509;42.816;74.648;2023-04-01T02:59:01;44.90;;;16.90;;
76617;SDS011;65509;42.816;74.648;2023-04-01T03:01:26;50.33;;;16.83;;
76617;SDS011;65509;42.816;74.648;2023-04-01T03:03:52;53.10;;;15.70;;
76617;SDS011;65509;42.816;74.648;2023-04-01T03:06:17;48.03;;;15.82;;
76617;SDS011;65509;42.816;74.648;2023-04-01T03:08:43;48.17;;;14.65;;
76617;SDS011;65509;42.816;74.648;2023-04-01T03:11:09;42.53;;;12.98;;
76617;SDS011;65509;42.816;74.648;2023-04-01T03:13:35;33.35;;;13.60;;
76617;SDS011;65509;42.816;74.648;2023-04-01T03:16:01;42.42;;;15.27;;
76617;SDS011;65509;42.816;74.648;2023-04-01T03:18:26;43.78;;;14.52;;
76617;SDS011;65509;42.816;74.648;2023-04-01T03:20:52;54.58;;;14.63;;
76617;SDS011;65509;42.816;74.648;2023-04-01T03:23:20;48.45;;;14.23;;
76617;SDS011;65509;42.816;74.648;2023-04-01T03:25:46;48.50;;;13.45;;
76617;SDS011;65509;42.816;74.648;2023-04-01T03:28:12;37.85;;;15.20;;
76617;SDS011;65509;42.816;74.648;2023-04-01T03:30:38;51.55;;;16.83;;
76617;SDS011;65509;42.816;74.648;2023-04-01T03:33:04;41.35;;;16.80;;
76617;SDS011;65509;42.816;74.648;2023-04-01T03:35:30;42.08;;;17.65;;
76617;SDS011;65509;42.816;74.648;2023-04-01T03:37:55;50.47;;;17.33;;
76617;SDS011;65509;42.816;74.648;2023-04-01T03:40:21;44.03;;;17.17;;
76617;SDS011;65509;42.816;74.648;2023-04-01T03:42:47;52.67;;;17.40;;
76617;SDS011;65509;42.816;74.648;2023-04-01T03:45:12;44.58;;;16.25;;
76617;SDS011;65509;42.816;74.648;2023-04-01T03:47:38;40.30;;;15.45;;
76617;SDS011;65509;42.816;74.648;2023-04-01T03:50:04;44.47;;;17.05;;
76617;SDS011;65509;42.816;74.648;2023-04-01T03:52:33;55.03;;;16.58;;
76617;SDS011;65509;42.816;74.648;2023-04-01T03:54:58;56.13;;;18.10;;
76617;SDS011;65509;42.816;74.648;2023-04-01T03:57:24;41.17;;;15.70;;
76617;SDS011;65509;42.816;74.648;2023-04-01T03:59:49;54.47;;;16.42;;
76617;SDS011;65509;42.816;74.648;2023-04-01T04:02:18;57.05;;;16.63;;
76617;SDS011;65509;42.816;74.648;2023-04-01T04:04:43;53.88;;;16.85;;
76617;SDS011;65509;42.816;74.648;2023-04-01T04:07:09;51.05;;;16.95;;
76617;SDS011;65509;42.816;74.648;2023-04-01T04:09:35;55.10;;;18.13;;
76617;SDS011;65509;42.816;74.648;2023-04-01T04:12:00;57.08;;;19.23;;
76617;SDS011;65509;42.816;74.648;2023-04-01T04:14:26;40.40;;;18.83;;
76617;SDS011;65509;42.816;74.648;2023-04-01T04:16:52;51.00;;;18.67;;
76617;SDS011;65509;42.816;74.648;2023-04-01T04:19:17;64.10;;;20.23;;
76617;SDS011;65509;42.816;74.648;2023-04-01T04:21:43;66.38;;;19.63;;
76617;SDS011;65509;42.816;74.648;2023-04-01T04:24:08;68.75;;;18.02;;
76617;SDS011;65509;42.816;74.648;2023-04-01T04:26:37;52.53;;;18.70;;
76617;SDS011;65509;42.816;74.648;2023-04-01T04:29:02;64.72;;;20.50;;
76617;SDS011;65509;42.816;74.648;2023-04-01T04:31:28;66.03;;;18.83;;
76617;SDS011;65509;42.816;74.648;2023-04-01T04:33:54;86.50;;;21.92;;
76617;SDS011;65509;42.816;74.648;2023-04-01T04:36:20;52.60;;;18.92;;
76617;SDS011;65509;42.816;74.648;2023-04-01T04:38:45;54.83;;;18.98;;
76617;SDS011;65509;42.816;74.648;2023-04-01T04:41:14;51.95;;;18.20;;
76617;SDS011;65509;42.816;74.648;2023-04-01T04:43:41;53.33;;;19.27;;
76617;SDS011;65509;42.816;74.648;2023-04-01T04:46:07;63.72;;;19.52;;
76617;SDS011;65509;42.816;74.648;2023-04-01T04:48:32;52.00;;;18.52;;
76617;SDS011;65509;42.816;74.648;2023-04-01T04:50:58;64.38;;;17.63;;
76617;SDS011;65509;42.816;74.648;2023-04-01T04:53:24;60.97;;;16.55;;
76617;SDS011;65509;42.816;74.648;2023-04-01T04:55:50;47.00;;;16.52;;
76617;SDS011;65509;42.816;74.648;2023-04-01T04:58:16;62.63;;;17.23;;
76617;SDS011;65509;42.816;74.648;2023-04-01T05:00:50;56.40;;;14.25;;
76617;SDS011;65509;42.816;74.648;2023-04-01T05:03:34;58.50;;;15.07;;
76617;SDS011;65509;42.816;74.648;2023-04-01T05:08:53;83.63;;;14.95;;
76617;SDS011;65509;42.816;74.648;2023-04-01T05:11:21;44.15;;;12.15;;
76617;SDS011;65509;42.816;74.648;2023-04-01T05:13:55;57.15;;;14.35;;
76617;SDS011;65509;42.816;74.648;2023-04-01T05:16:22;55.60;;;13.00;;
76617;SDS011;65509;42.816;74.648;2023-04-01T05:18:48;46.67;;;12.30;;
76617;SDS011;65509;42.816;74.648;2023-04-01T05:21:13;36.63;;;12.98;;
76617;SDS011;65509;42.816;74.648;2023-04-01T05:23:45;60.17;;;13.88;;
76617;SDS011;65509;42.816;74.648;2023-04-01T05:26:20;55.55;;;13.20;;
76617;SDS011;65509;42.816;74.648;2023-04-01T05:28:45;44.92;;;12.63;;
76617;SDS011;65509;42.816;74.648;2023-04-01T05:31:11;55.13;;;14.10;;
76617;SDS011;65509;42.816;74.648;2023-04-01T05:33:36;51.55;;;13.63;;
76617;SDS011;65509;42.816;74.648;2023-04-01T05:36:08;90.05;;;15.82;;
76617;SDS011;65509;42.816;74.648;2023-04-01T05:38:34;52.53;;;12.48;;
76617;SDS011;65509;42.816;74.648;2023-04-01T05:41:00;61.42;;;13.32;;
76617;SDS011;65509;42.816;74.648;2023-04-01T05:43:28;46.35;;;12.98;;
76617;SDS011;65509;42.816;74.648;2023-04-01T05:45:57;50.25;;;11.77;;
76617;SDS011;65509;42.816;74.648;2023-04-01T05:48:22;59.97;;;12.90;;
76617;SDS011;65509;42.816;74.648;2023-04-01T05:50:47;46.53;;;12.48;;
76617;SDS011;65509;42.816;74.648;2023-04-01T05:53:13;44.33;;;10.35;;
76617;SDS011;65509;42.816;74.648;2023-04-01T05:55:38;43.22;;;11.15;;
76617;SDS011;65509;42.816;74.648;2023-04-01T05:58:12;49.67;;;11.57;;
76617;SDS011;65509;42.816;74.648;2023-04-01T06:00:43;39.38;;;10.30;;
76617;SDS011;65509;42.816;74.648;2023-04-01T06:03:08;41.08;;;10.63;;
76617;SDS011;65509;42.816;74.648;2023-04-01T06:05:40;53.08;;;12.93;;
76617;SDS011;65509;42.816;74.648;2023-04-01T06:08:10;57.63;;;11.50;;
76617;SDS011;65509;42.816;74.648;2023-04-01T06:10:39;48.30;;;11.93;;
76617;SDS011;65509;42.816;74.648;2023-04-01T06:13:35;49.70;;;13.18;;
76617;SDS011;65509;42.816;74.648;2023-04-01T06:19:24;47.35;;;10.15;;
76617;SDS011;65509;42.816;74.648;2023-04-01T06:24:31;51.28;;;9.90;;
76617;SDS011;65509;42.816;74.648;2023-04-01T06:27:23;71.03;;;14.07;;
76617;SDS011;65509;42.816;74.648;2023-04-01T06:29:56;47.20;;;8.68;;
76617;SDS011;65509;42.816;74.648;2023-04-01T06:35:07;56.13;;;12.27;;
76617;SDS011;65509;42.816;74.648;2023-04-01T06:37:40;52.20;;;10.07;;
76617;SDS011;65509;42.816;74.648;2023-04-01T06:40:16;46.42;;;10.38;;
76617;SDS011;65509;42.816;74.648;2023-04-01T06:42:47;51.42;;;9.57;;
76617;SDS011;65509;42.816;74.648;2023-04-01T06:45:36;67.20;;;10.95;;
76617;SDS011;65509;42.816;74.648;2023-04-01T06:53:31;48.67;;;8.98;;
76617;SDS011;65509;42.816;74.648;2023-04-01T06:56:08;57.10;;;10.85;;
76617;SDS011;65509;42.816;74.648;2023-04-01T06:58:39;47.00;;;9.45;;
76617;SDS011;65509;42.816;74.648;2023-04-01T07:01:08;46.00;;;10.75;;
76617;SDS011;65509;42.816;74.648;2023-04-01T07:03:36;52.80;;;11.05;;
76617;SDS011;65509;42.816;74.648;2023-04-01T07:06:20;56.88;;;11.43;;
76617;SDS011;65509;42.816;74.648;2023-04-01T07:08:48;51.60;;;11.35;;
76617;SDS011;65509;42.816;74.648;2023-04-01T07:11:25;44.90;;;11.45;;
76617;SDS011;65509;42.816;74.648;2023-04-01T07:13:53;51.92;;;13.65;;
76617;SDS011;65509;42.816;74.648;2023-04-01T07:16:21;62.42;;;12.50;;
76617;SDS011;65509;42.816;74.648;2023-04-01T07:18:49;40.10;;;11.68;;
76617;SDS011;65509;42.816;74.648;2023-04-01T07:21:21;50.28;;;11.73;;
76617;SDS011;65509;42.816;74.648;2023-04-01T07:23:47;51.55;;;11.13;;
76617;SDS011;65509;42.816;74.648;2023-04-01T07:26:21;56.53;;;10.82;;
76617;SDS011;65509;42.816;74.648;2023-04-01T07:28:48;53.30;;;13.95;;
76617;SDS011;65509;42.816;74.648;2023-04-01T07:31:16;52.50;;;12.75;;
76617;SDS011;65509;42.816;74.648;2023-04-01T07:36:13;45.50;;;12.25;;
76617;SDS011;65509;42.816;74.648;2023-04-01T07:46:45;47.78;;;10.57;;
76617;SDS011;65509;42.816;74.648;2023-04-01T07:52:01;56.80;;;9.20;;
76617;SDS011;65509;42.816;74.648;2023-04-01T07:57:25;54.60;;;8.30;;
76617;SDS011;65509;42.816;74.648;2023-04-01T08:05:22;60.75;;;10.05;;
76617;SDS011;65509;42.816;74.648;2023-04-01T08:08:06;51.47;;;8.40;;
76617;SDS011;65509;42.816;74.648;2023-04-01T08:13:29;76.63;;;8.40;;
76617;SDS011;65509;42.816;74.648;2023-04-01T08:16:01;37.22;;;8.27;;
76617;SDS011;65509;42.816;74.648;2023-04-01T08:21:03;55.03;;;7.93;;
76617;SDS011;65509;42.816;74.648;2023-04-01T08:25:56;57.67;;;9.07;;
76617;SDS011;65509;42.816;74.648;2023-04-01T08:28:35;45.30;;;9.38;;
76617;SDS011;65509;42.816;74.648;2023-04-01T08:31:16;50.20;;;9.13;;
76617;SDS011;65509;42.816;74.648;2023-04-01T08:33:44;49.63;;;8.13;;
76617;SDS011;65509;42.816;74.648;2023-04-01T08:36:28;48.47;;;7.88;;
76617;SDS011;65509;42.816;74.648;2023-04-01T08:39:02;38.28;;;7.43;;
76617;SDS011;65509;42.816;74.648;2023-04-01T08:52:11;53.33;;;9.33;;
76617;SDS011;65509;42.816;74.648;2023-04-01T09:07:45;25.92;;;5.60;;
76617;SDS011;65509;42.816;74.648;2023-04-01T09:15:37;49.75;;;9.90;;
76617;SDS011;65509;42.816;74.648;2023-04-01T09:23:57;26.25;;;7.00;;
76617;SDS011;65509;42.816;74.648;2023-04-01T09:26:27;43.15;;;7.60;;
76617;SDS011;65509;42.816;74.648;2023-04-01T09:34:12;33.58;;;6.78;;
76617;SDS011;65509;42.816;74.648;2023-04-01T09:36:46;31.70;;;6.97;;
76617;SDS011;65509;42.816;74.648;2023-04-01T09:50:13;43.45;;;10.35;;
76617;SDS011;65509;42.816;74.648;2023-04-01T09:52:56;33.50;;;7.03;;
76617;SDS011;65509;42.816;74.648;2023-04-01T10:00:44;28.45;;;6.75;;
76617;SDS011;65509;42.816;74.648;2023-04-01T10:16:01;32.58;;;6.55;;
76617;SDS011;65509;42.816;74.648;2023-04-01T10:21:04;49.33;;;6.03;;
76617;SDS011;65509;42.816;74.648;2023-04-01T10:26:21;45.20;;;7.53;;
76617;SDS011;65509;42.816;74.648;2023-04-01T10:36:38;36.75;;;7.22;;
76617;SDS011;65509;42.816;74.648;2023-04-01T10:47:01;53.92;;;9.30;;
76617;SDS011;65509;42.816;74.648;2023-04-01T10:49:48;46.58;;;9.25;;
76617;SDS011;65509;42.816;74.648;2023-04-01T10:52:23;40.20;;;7.22;;
76617;SDS011;65509;42.816;74.648;2023-04-01T10:54:59;47.67;;;6.88;;
76617;SDS011;65509;42.816;74.648;2023-04-01T11:24:21;36.60;;;8.07;;
76617;SDS011;65509;42.816;74.648;2023-04-01T11:32:24;60.97;;;10.50;;
76617;SDS011;65509;42.816;74.648;2023-04-01T11:40:45;44.95;;;7.15;;
76617;SDS011;65509;42.816;74.648;2023-04-01T11:43:16;47.08;;;9.40;;
76617;SDS011;65509;42.816;74.648;2023-04-01T11:51:29;50.05;;;8.80;;
76617;SDS011;65509;42.816;74.648;2023-04-01T11:56:33;52.15;;;9.45;;
76617;SDS011;65509;42.816;74.648;2023-04-01T12:07:15;43.53;;;9.65;;
76617;SDS011;65509;42.816;74.648;2023-04-01T12:19:48;55.17;;;6.85;;
76617;SDS011;65509;42.816;74.648;2023-04-01T12:22:25;50.05;;;7.93;;
76617;SDS011;65509;42.816;74.648;2023-04-01T12:32:37;43.35;;;6.72;;
76617;SDS011;65509;42.816;74.648;2023-04-01T12:35:12;41.88;;;6.97;;
76617;SDS011;65509;42.816;74.648;2023-04-01T12:43:05;48.17;;;9.90;;
76617;SDS011;65509;42.816;74.648;2023-04-01T12:54:06;50.75;;;8.07;;
76617;SDS011;65509;42.816;74.648;2023-04-01T13:10:13;58.95;;;7.68;;
76617;SDS011;65509;42.816;74.648;2023-04-01T13:24:22;69.60;;;10.32;;
76617;SDS011;65509;42.816;74.648;2023-04-01T13:29:33;79.85;;;11.18;;
76617;SDS011;65509;42.816;74.648;2023-04-01T13:40:44;73.20;;;11.27;;
76617;SDS011;65509;42.816;74.648;2023-04-01T13:42:57;77.35;;;13.77;;
76617;SDS011;65509;42.816;74.648;2023-04-01T13:48:27;71.72;;;13.18;;
76617;SDS011;65509;42.816;74.648;2023-04-01T13:50:57;72.05;;;12.43;;
76617;SDS011;65509;42.816;74.648;2023-04-01T13:58:52;57.63;;;10.50;;
76617;SDS011;65509;42.816;74.648;2023-04-01T14:01:37;57.37;;;9.33;;
76617;SDS011;65509;42.816;74.648;2023-04-01T14:04:21;67.97;;;11.60;;
76617;SDS011;65509;42.816;74.648;2023-04-01T14:12:27;53.38;;;9.60;;
76617;SDS011;65509;42.816;74.648;2023-04-01T14:17:50;43.03;;;9.65;;
76617;SDS011;65509;42.816;74.648;2023-04-01T14:35:41;56.97;;;11.20;;
76617;SDS011;65509;42.816;74.648;2023-04-01T14:52:31;43.83;;;9.43;;
76617;SDS011;65509;42.816;74.648;2023-04-01T14:55:01;60.70;;;9.98;;
76617;SDS011;65509;42.816;74.648;2023-04-01T14:57:36;46.80;;;9.15;;
76617;SDS011;65509;42.816;74.648;2023-04-01T15:00:17;53.15;;;9.65;;
76617;SDS011;65509;42.816;74.648;2023-04-01T15:02:59;51.75;;;8.20;;
76617;SDS011;65509;42.816;74.648;2023-04-01T15:08:18;49.15;;;13.50;;
76617;SDS011;65509;42.816;74.648;2023-04-01T15:21:18;48.67;;;8.77;;
76617;SDS011;65509;42.816;74.648;2023-04-01T15:31:49;46.72;;;9.07;;
76617;SDS011;65509;42.816;74.648;2023-04-01T15:34:37;46.60;;;8.63;;
76617;SDS011;65509;42.816;74.648;2023-04-01T15:37:23;52.53;;;9.55;;
76617;SDS011;65509;42.816;74.648;2023-04-01T15:45:09;47.60;;;7.82;;
76617;SDS011;65509;42.816;74.648;2023-04-01T15:47:52;25.45;;;7.63;;
76617;SDS011;65509;42.816;74.648;2023-04-01T15:50:29;52.63;;;9.73;;
76617;SDS011;65509;42.816;74.648;2023-04-01T16:01:08;50.15;;;13.50;;
76617;SDS011;65509;42.816;74.648;2023-04-01T16:03:56;52.30;;;14.15;;
76617;SDS011;65509;42.816;74.648;2023-04-01T16:11:52;47.58;;;10.27;;
76617;SDS011;65509;42.816;74.648;2023-04-01T16:14:36;69.75;;;13.23;;
76617;SDS011;65509;42.816;74.648;2023-04-01T16:17:15;51.17;;;13.38;;
76617;SDS011;65509;42.816;74.648;2023-04-01T16:24:51;68.75;;;17.80;;
76617;SDS011;65509;42.816;74.648;2023-04-01T16:27:40;64.22;;;17.77;;
76617;SDS011;65509;42.816;74.648;2023-04-01T16:32:51;75.78;;;18.92;;
76617;SDS011;65509;42.816;74.648;2023-04-01T16:43:57;72.20;;;18.60;;
76617;SDS011;65509;42.816;74.648;2023-04-01T16:46:38;63.65;;;15.88;;
76617;SDS011;65509;42.816;74.648;2023-04-01T16:51:49;60.45;;;16.35;;
76617;SDS011;65509;42.816;74.648;2023-04-01T16:57:14;70.00;;;20.23;;
76617;SDS011;65509;42.816;74.648;2023-04-01T17:05:08;88.85;;;25.42;;
76617;SDS011;65509;42.816;74.648;2023-04-01T17:10:45;104.15;;;31.45;;
76617;SDS011;65509;42.816;74.648;2023-04-01T17:21:18;85.35;;;33.88;;
76617;SDS011;65509;42.816;74.648;2023-04-01T17:23:51;77.60;;;29.52;;
76617;SDS011;65509;42.816;74.648;2023-04-01T17:29:46;99.68;;;28.13;;
76617;SDS011;65509;42.816;74.648;2023-04-01T17:41:09;61.25;;;21.38;;
76617;SDS011;65509;42.816;74.648;2023-04-01T17:51:27;96.72;;;23.63;;
76617;SDS011;65509;42.816;74.648;2023-04-01T18:02:39;80.72;;;22.80;;
76617;SDS011;65509;42.816;74.648;2023-04-01T18:29:35;77.43;;;20.52;;
76617;SDS011;65509;42.816;74.648;2023-04-01T18:32:14;66.50;;;19.70;;
76617;SDS011;65509;42.816;74.648;2023-04-01T18:34:52;57.75;;;16.05;;
76617;SDS011;65509;42.816;74.648;2023-04-01T18:37:32;58.55;;;17.05;;
76617;SDS011;65509;42.816;74.648;2023-04-01T18:45:34;44.92;;;13.68;;
76617;SDS011;65509;42.816;74.648;2023-04-01T18:50:53;51.42;;;15.10;;
76617;SDS011;65509;42.816;74.648;2023-04-01T18:56:34;39.95;;;11.45;;
76617;SDS011;65509;42.816;74.648;2023-04-01T19:01:55;60.65;;;15.82;;
76617;SDS011;65509;42.816;74.648;2023-04-01T19:10:00;63.10;;;14.98;;
76617;SDS011;65509;42.816;74.648;2023-04-01T19:12:48;51.40;;;13.05;;
76617;SDS011;65509;42.816;74.648;2023-04-01T19:15:41;66.00;;;13.73;;
76617;SDS011;65509;42.816;74.648;2023-04-01T19:21:00;50.08;;;14.45;;
76617;SDS011;65509;42.816;74.648;2023-04-01T19:23:35;39.78;;;13.32;;
76617;SDS011;65509;42.816;74.648;2023-04-01T19:26:05;48.03;;;14.57;;
76617;SDS011;65509;42.816;74.648;2023-04-01T19:28:52;45.17;;;12.90;;
76617;SDS011;65509;42.816;74.648;2023-04-01T19:34:07;48.28;;;13.00;;
76617;SDS011;65509;42.816;74.648;2023-04-01T19:36:48;38.40;;;12.98;;
76617;SDS011;65509;42.816;74.648;2023-04-01T19:39:23;73.03;;;14.27;;
76617;SDS011;65509;42.816;74.648;2023-04-01T19:42:01;54.45;;;13.05;;
76617;SDS011;65509;42.816;74.648;2023-04-01T19:44:41;46.25;;;12.50;;
76617;SDS011;65509;42.816;74.648;2023-04-01T19:47:20;40.80;;;11.15;;
76617;SDS011;65509;42.816;74.648;2023-04-01T19:52:52;46.38;;;11.32;;
76617;SDS011;65509;42.816;74.648;2023-04-01T19:58:00;49.42;;;11.77;;
76617;SDS011;65509;42.816;74.648;2023-04-01T20:01:03;39.45;;;11.13;;
76617;SDS011;65509;42.816;74.648;2023-04-01T20:05:51;35.47;;;10.60;;
76617;SDS011;65509;42.816;74.648;2023-04-01T20:16:08;45.30;;;11.55;;
76617;SDS011;65509;42.816;74.648;2023-04-01T20:26:34;37.60;;;9.13;;
76617;SDS011;65509;42.816;74.648;2023-04-01T20:31:49;39.38;;;10.07;;
76617;SDS011;65509;42.816;74.648;2023-04-01T20:37:18;36.03;;;9.18;;
76617;SDS011;65509;42.816;74.648;2023-04-01T20:39:57;35.72;;;9.38;;
76617;SDS011;65509;42.816;74.648;2023-04-01T20:42:45;31.95;;;9.43;;
76617;SDS011;65509;42.816;74.648;2023-04-01T20:48:07;41.30;;;8.90;;
76617;SDS011;65509;42.816;74.648;2023-04-01T20:53:28;44.83;;;8.65;;
76617;SDS011;65509;42.816;74.648;2023-04-01T20:56:11;35.22;;;9.43;;
76617;SDS011;65509;42.816;74.648;2023-04-01T21:06:35;40.63;;;9.27;;
76617;SDS011;65509;42.816;74.648;2023-04-01T21:25:21;19.00;;;5.78;;
76617;SDS011;65509;42.816;74.648;2023-04-01T21:28:23;28.73;;;7.50;;
76617;SDS011;65509;42.816;74.648;2023-04-01T21:49:32;18.38;;;6.63;;
76617;SDS011;65509;42.816;74.648;2023-04-01T22:05:33;35.40;;;6.47;;
76617;SDS011;65509;42.816;74.648;2023-04-01T22:08:04;24.27;;;6.47;;
76617;SDS011;65509;42.816;74.648;2023-04-01T22:10:36;24.63;;;6.47;;
76617;SDS011;65509;42.816;74.648;2023-04-01T22:18:04;27.10;;;7.05;;
76617;SDS011;65509;42.816;74.648;2023-04-01T22:21:15;34.25;;;10.05;;
76617;SDS011;65509;42.816;74.648;2023-04-01T22:23:34;23.70;;;8.13;;
76617;SDS011;65509;42.816;74.648;2023-04-01T22:26:05;33.40;;;8.88;;
76617;SDS011;65509;42.816;74.648;2023-04-01T22:28:39;59.78;;;9.55;;
76617;SDS011;65509;42.816;74.648;2023-04-01T22:31:07;45.17;;;10.40;;
76617;SDS011;65509;42.816;74.648;2023-04-01T22:38:41;36.70;;;7.90;;
76617;SDS011;65509;42.816;74.648;2023-04-01T22:41:19;41.33;;;9.65;;
76617;SDS011;65509;42.816;74.648;2023-04-01T22:43:56;42.20;;;8.25;;
76617;SDS011;65509;42.816;74.648;2023-04-01T22:51:54;27.23;;;6.50;;
76617;SDS011;65509;42.816;74.648;2023-04-01T22:54:24;39.47;;;7.40;;
76617;SDS011;65509;42.816;74.648;2023-04-01T22:57:07;43.63;;;8.38;;
76617;SDS011;65509;42.816;74.648;2023-04-01T23:02:19;18.67;;;6.50;;
76617;SDS011;65509;42.816;74.648;2023-04-01T23:04:51;43.38;;;7.38;;
76617;SDS011;65509;42.816;74.648;2023-04-01T23:10:19;22.75;;;7.15;;
76617;SDS011;65509;42.816;74.648;2023-04-01T23:12:47;31.35;;;6.68;;
76617;SDS011;65509;42.816;74.648;2023-04-01T23:15:14;28.75;;;7.60;;
76617;SDS011;65509;42.816;74.648;2023-04-01T23:17:51;25.13;;;7.72;;
76617;SDS011;65509;42.816;74.648;2023-04-01T23:20:29;21.35;;;6.68;;
76617;SDS011;65509;42.816;74.648;2023-04-01T23:23:15;36.28;;;8.20;;
76617;SDS011;65509;42.816;74.648;2023-04-01T23:25:49;39.83;;;7.63;;
76617;SDS011;65509;42.816;74.648;2023-04-01T23:28:25;18.50;;;6.50;;
76617;SDS011;65509;42.816;74.648;2023-04-01T23:30:57;28.98;;;7.22;;
76617;SDS011;65509;42.816;74.648;2023-04-01T23:33:29;28.75;;;7.00;;
76617;SDS011;65509;42.816;74.648;2023-04-01T23:35:58;41.35;;;7.53;;
76617;SDS011;65509;42.816;74.648;2023-04-01T23:38:34;21.65;;;6.22;;
76617;SDS011;65509;42.816;74.648;2023-04-01T23:41:00;36.40;;;6.32;;
76617;SDS011;65509;42.816;74.648;2023-04-01T23:43:28;33.03;;;6.85;;
76617;SDS011;65509;42.816;74.648;2023-04-01T23:45:56;34.83;;;6.82;;
76617;SDS011;65509;42.816;74.648;2023-04-01T23:48:26;19.95;;;5.70;;
76617;SDS011;65509;42.816;74.648;2023-04-01T23:50:53;37.75;;;9.18;;
76617;SDS011;65509;42.816;74.648;2023-04-01T23:53:20;25.33;;;7.85;;
76617;SDS011;65509;42.816;74.648;2023-04-01T23:55:46;36.63;;;8.00;;
76617;SDS011;65509;42.816;74.648;2023-04-01T23:58:21;35.97;;;7.93;;
